Hattieville, Arkansas
Current Conditions -  °F | °C
As of 5:12 PM on Monday 22 Dec 2014 (Local Time) from KRUE Reporting Station
Haze Haze  
Wind Chill: 52°   Ceiling: 1300
Heat Index: 52°   Visibility: 6mi
Dew Point: 51°   Wind: 0mph
Humidity: 97%   Direction: NA
Pressure: 29.55"   Gusts: NA
Location:  35.29°N, 92.79°W
Report Text: KRUE 222312Z AUTO 00000KT 6SM BR FEW003 BKN013 BKN021 11/11 A2955 RMK AO2 PRESRR T01110106
Loading
Personal Weather Stations






























Interactive Weather Map New forecast layout! Learn more

10-Day Weather Forecast

Advertisements
Track Severe Weather on mobile